Aérodrome :
LOGIN :

S'inscrire | Disclaimer

   EN    FR    IT 

 










Légende :    VFR   VFR Marginal   IFR   IFR Intensif   IFR Très Intensif
Visi : 
Plafond : 
>= 8 km
>= 3000ft
5 à 8 km
1000 à 3000 ft
1500m à 5 km
500 à 1000 ft
800 à 1500m
200 à 500 ft
< 800m
< 200 ft
Symboles :   Orages  Brouillard  Fortes neiges  Fortes précipitations  Vent > 20 kt
SIGMETs :   Divers  Orages  Givrage  Turbulence  Onde Orograph.  Cendres Volcan.







- Altitude de l'aérodrome : 1830 ft


EBLB - Butgenbach Elsenborn

DERNIER METAR :
  • 230833Z AUTO 25009KT 9999 FEW006/// BKN009/// BKN032/// 13/11 Q1016 GRN

METARs EXPIRÉS :
  • 230825Z AUTO 24009KT 9999 FEW007/// BKN032/// 13/11 Q1016 BLU
  • 230755Z AUTO 25007KT 9999 OVC006/// 12/12 Q1015 YLO
  • 230725Z AUTO 24007KT 5000 OVC005/// 12/12 Q1015 YLO
  • 230655Z AUTO 24007KT 9999 BKN003/// 12/12 Q1015 YLO
  • 230625Z AUTO 23004KT 3000 -DZ OVC003/// 12/12 Q1014 YLO
  • 230555Z AUTO 20004KT 2500 -RA OVC003/// 12/12 Q1014 YLO

Prévision TAF périmée.
Pas de NOTAMs connus pour ce terrain.



MET'MAP, la Météo Aéronautique d'un coup d'oeil ! - Copyright ORBIFLY Décembre 2007 - Disclaimer

ORBIFLY MET'MAP TEAM :

Programmation & Développement : Alexandra Zaïnal
Conception & Développement : Baudouin d'Aumeries
Co-Programmation & Développement : Marc-Olivier Méhu
Soutien technique & logistique : Manuel Goepfert

Contact : metmap@orbifly.com




SOURCES & CREDITS :

   NOAA